createdAt,value
2022-09-02T00:00:21.999Z,957.7
2022-09-02T00:01:21.986Z,957.71
2022-09-02T00:02:22.060Z,957.75
2022-09-02T00:03:22.306Z,957.74
2022-09-02T00:04:21.961Z,957.73
2022-09-02T00:05:21.937Z,957.74
2022-09-02T00:06:21.924Z,957.74
2022-09-02T00:07:21.913Z,957.75
2022-09-02T00:08:21.903Z,957.74
2022-09-02T00:09:21.889Z,957.68
2022-09-02T00:10:21.875Z,957.73
2022-09-02T00:11:21.865Z,957.72
2022-09-02T00:12:21.850Z,957.73
2022-09-02T00:13:21.952Z,957.75
2022-09-02T00:14:21.826Z,957.69
2022-09-02T00:15:21.815Z,957.65
2022-09-02T00:16:21.819Z,957.7
2022-09-02T00:17:21.791Z,957.73
2022-09-02T00:18:21.779Z,957.68
2022-09-02T00:19:21.764Z,957.73
2022-09-02T00:20:21.754Z,957.69
2022-09-02T00:21:21.742Z,957.69
2022-09-02T00:22:21.732Z,957.69
2022-09-02T00:23:21.845Z,957.69
2022-09-02T00:24:21.705Z,957.66
2022-09-02T00:25:21.692Z,957.68
2022-09-02T00:26:21.680Z,957.69
2022-09-02T00:27:21.667Z,957.71
2022-09-02T00:28:21.657Z,957.61
2022-09-02T00:29:21.643Z,957.7
2022-09-02T00:30:21.631Z,957.64
2022-09-02T00:31:21.632Z,957.68
2022-09-02T00:32:21.608Z,957.64
2022-09-02T00:33:21.639Z,957.61
2022-09-02T00:34:21.582Z,957.65
2022-09-02T00:35:21.569Z,957.64
2022-09-02T00:36:21.563Z,957.63
2022-09-02T00:37:21.544Z,957.65
2022-09-02T00:38:21.533Z,957.59
2022-09-02T00:39:21.519Z,957.63
2022-09-02T00:40:21.549Z,957.62
2022-09-02T00:41:21.495Z,957.58
2022-09-02T00:42:21.486Z,957.56
2022-09-02T00:43:21.575Z,957.57
2022-09-02T00:44:21.459Z,957.61
2022-09-02T00:45:21.491Z,957.59
2022-09-02T00:46:21.451Z,957.54
2022-09-02T00:47:21.422Z,957.58
2022-09-02T00:48:21.410Z,957.57
2022-09-02T00:49:21.396Z,957.56
2022-09-02T00:50:21.385Z,957.59
2022-09-02T00:51:21.372Z,957.55
2022-09-02T00:52:21.361Z,957.52
2022-09-02T00:53:21.466Z,957.55
2022-09-02T00:54:21.335Z,957.55
2022-09-02T00:55:21.322Z,957.53
2022-09-02T00:56:21.310Z,957.51
2022-09-02T00:57:21.297Z,957.54
2022-09-02T00:58:21.287Z,957.5
2022-09-02T00:59:21.274Z,957.55
2022-09-02T01:00:21.262Z,957.53
2022-09-02T01:01:21.335Z,957.52
2022-09-02T01:02:21.328Z,957.56
2022-09-02T01:03:21.361Z,957.56
2022-09-02T01:04:21.211Z,957.55
2022-09-02T01:05:21.197Z,957.56
2022-09-02T01:06:21.186Z,957.56
2022-09-02T01:07:21.173Z,957.54
2022-09-02T01:08:21.163Z,957.51
2022-09-02T01:09:21.150Z,957.56
2022-09-02T01:10:21.137Z,957.56
2022-09-02T01:11:21.126Z,957.54
2022-09-02T01:12:21.110Z,957.51
2022-09-02T01:13:21.146Z,957.55
2022-09-02T01:14:21.084Z,957.53
2022-09-02T01:15:21.074Z,957.53
2022-09-02T01:16:21.108Z,957.52
2022-09-02T01:17:21.049Z,957.55
2022-09-02T01:18:21.036Z,957.51
2022-09-02T01:19:21.025Z,957.54
2022-09-02T01:20:21.012Z,957.55
2022-09-02T01:21:20.999Z,957.54
2022-09-02T01:22:20.984Z,957.56
2022-09-02T01:23:21.062Z,957.51
2022-09-02T01:24:20.961Z,957.55
2022-09-02T01:25:20.950Z,957.56
2022-09-02T01:26:20.934Z,957.52
2022-09-02T01:27:20.926Z,957.55
2022-09-02T01:28:20.910Z,957.54
2022-09-02T01:29:20.899Z,957.56
2022-09-02T01:30:20.885Z,957.56
2022-09-02T01:31:20.932Z,957.54
2022-09-02T01:32:20.859Z,957.53
2022-09-02T01:33:20.912Z,957.53
2022-09-02T01:34:20.835Z,957.53
2022-09-02T01:35:20.825Z,957.53
2022-09-02T01:36:20.810Z,957.53
2022-09-02T01:37:20.797Z,957.52
2022-09-02T01:38:20.784Z,957.5
2022-09-02T01:39:20.773Z,957.48
2022-09-02T01:40:20.798Z,957.49
2022-09-02T01:41:20.747Z,957.51
2022-09-02T01:42:20.733Z,957.48
2022-09-02T01:43:20.722Z,957.5
2022-09-02T01:44:20.709Z,957.45
2022-09-02T01:45:20.700Z,957.46
2022-09-02T01:46:20.733Z,957.45
2022-09-02T01:47:20.671Z,957.43
2022-09-02T01:48:21.617Z,957.46
2022-09-02T01:49:20.646Z,957.44
2022-09-02T01:50:20.631Z,957.45
2022-09-02T01:51:20.623Z,957.43
2022-09-02T01:52:20.606Z,957.4
2022-09-02T01:53:20.596Z,957.43
2022-09-02T01:54:20.581Z,957.38
2022-09-02T01:55:20.571Z,957.42
2022-09-02T01:56:20.560Z,957.43
2022-09-02T01:57:20.545Z,957.41
2022-09-02T01:58:20.530Z,957.38
2022-09-02T01:59:20.519Z,957.38
2022-09-02T02:00:20.506Z,957.38
2022-09-02T02:01:20.595Z,957.38
2022-09-02T02:02:20.553Z,957.38
2022-09-02T02:03:20.465Z,957.36
2022-09-02T02:04:20.455Z,957.35
2022-09-02T02:05:20.440Z,957.35
2022-09-02T02:06:20.430Z,957.3
2022-09-02T02:07:20.416Z,957.32
2022-09-02T02:08:20.404Z,957.29
2022-09-02T02:09:20.388Z,957.28
2022-09-02T02:10:20.378Z,957.31
2022-09-02T02:11:20.363Z,957.28
2022-09-02T02:12:20.352Z,957.26
2022-09-02T02:13:20.437Z,957.24
2022-09-02T02:14:20.326Z,957.26
2022-09-02T02:15:20.314Z,957.25
2022-09-02T02:16:20.356Z,957.19
2022-09-02T02:17:20.287Z,957.2
2022-09-02T02:18:20.276Z,957.19
2022-09-02T02:19:20.262Z,957.25
2022-09-02T02:20:20.249Z,957.19
2022-09-02T02:21:20.235Z,957.22
2022-09-02T02:22:20.225Z,957.2
2022-09-02T02:23:20.238Z,957.14
2022-09-02T02:24:20.200Z,957.15
2022-09-02T02:25:20.184Z,957.18
2022-09-02T02:26:20.381Z,957.17
2022-09-02T02:27:20.157Z,957.18
2022-09-02T02:28:20.147Z,957.15
2022-09-02T02:29:20.135Z,957.18
2022-09-02T02:30:20.122Z,957.15
2022-09-02T02:31:20.170Z,957.2
2022-09-02T02:32:20.095Z,957.25
2022-09-02T02:33:20.130Z,957.25
2022-09-02T02:34:20.068Z,957.19
2022-09-02T02:35:20.056Z,957.21
2022-09-02T02:36:20.044Z,957.21
2022-09-02T02:37:23.466Z,957.17
2022-09-02T02:38:20.016Z,957.24
2022-09-02T02:39:20.003Z,957.22
2022-09-02T02:40:20.005Z,957.21
2022-09-02T02:41:19.977Z,957.2
2022-09-02T02:42:19.966Z,957.23
2022-09-02T02:43:19.978Z,957.26
2022-09-02T02:44:19.941Z,957.22
2022-09-02T02:45:19.924Z,957.22
2022-09-02T02:46:19.951Z,957.22
2022-09-02T02:47:19.900Z,957.25
2022-09-02T02:48:19.889Z,957.25
2022-09-02T02:49:19.874Z,957.24
2022-09-02T02:50:19.862Z,957.27
2022-09-02T02:51:19.850Z,957.26
2022-09-02T02:52:19.834Z,957.25
2022-09-02T02:53:19.886Z,957.23
2022-09-02T02:54:19.808Z,957.26
2022-09-02T02:55:19.808Z,957.24
2022-09-02T02:56:19.781Z,957.27
2022-09-02T02:57:19.777Z,957.26
2022-09-02T02:58:19.755Z,957.23
2022-09-02T02:59:19.745Z,957.25
2022-09-02T03:00:19.729Z,957.21
2022-09-02T03:01:19.789Z,957.23
2022-09-02T03:02:19.827Z,957.22
2022-09-02T03:03:19.960Z,957.2
2022-09-02T03:04:19.678Z,957.15
2022-09-02T03:05:19.666Z,957.14
2022-09-02T03:06:19.652Z,957.16
2022-09-02T03:07:19.641Z,957.16
2022-09-02T03:08:19.625Z,957.2
2022-09-02T03:09:19.614Z,957.22
2022-09-02T03:10:19.607Z,957.2
2022-09-02T03:11:19.587Z,957.17
2022-09-02T03:12:19.572Z,957.18
2022-09-02T03:13:19.593Z,957.16
2022-09-02T03:14:19.547Z,957.14
2022-09-02T03:15:19.534Z,957.12
2022-09-02T03:16:19.578Z,957.11
2022-09-02T03:17:19.508Z,957.09
2022-09-02T03:18:19.492Z,957.07
2022-09-02T03:19:19.482Z,957.05
2022-09-02T03:20:19.468Z,957
2022-09-02T03:21:19.460Z,957.03
2022-09-02T03:22:19.440Z,957.06
2022-09-02T03:23:19.517Z,957.04
2022-09-02T03:24:19.415Z,957.03
2022-09-02T03:25:19.402Z,957.06
2022-09-02T03:26:19.388Z,957.04
2022-09-02T03:27:19.375Z,957.03
2022-09-02T03:28:19.361Z,957.05
2022-09-02T03:29:19.349Z,957.06
2022-09-02T03:30:19.334Z,957.03
2022-09-02T03:31:19.384Z,957.05
2022-09-02T03:32:19.308Z,957.01
2022-09-02T03:49:43.770Z,957.06
2022-09-02T03:50:43.654Z,957.1
2022-09-02T03:51:43.636Z,957.05
2022-09-02T03:52:43.622Z,957.03
2022-09-02T03:53:43.604Z,957.06
2022-09-02T03:54:43.592Z,957.07
2022-09-02T03:55:43.574Z,957.05
2022-09-02T03:56:43.559Z,957.1
2022-09-02T03:57:43.543Z,957.12
2022-09-02T03:58:43.529Z,957.11
2022-09-02T03:59:43.511Z,957.11
2022-09-02T04:00:43.500Z,957.04
2022-09-02T04:01:43.531Z,957.05
2022-09-02T04:02:43.511Z,957.04
2022-09-02T04:03:43.454Z,957.01
2022-09-02T04:04:43.441Z,957.08
2022-09-02T04:05:43.426Z,957.05
2022-09-02T04:06:43.413Z,957.01
2022-09-02T04:07:43.397Z,957.04
2022-09-02T04:08:43.385Z,957.01
2022-09-02T04:09:46.544Z,957.01
2022-09-02T04:10:43.356Z,957.04
2022-09-02T04:11:43.348Z,957.02
2022-09-02T04:12:43.327Z,957.02
2022-09-02T04:13:43.313Z,957
2022-09-02T04:14:43.299Z,957.04
2022-09-02T04:15:43.333Z,957.05
2022-09-02T04:16:43.271Z,957
2022-09-02T04:17:43.256Z,957.01
2022-09-02T04:18:43.243Z,957.07
2022-09-02T04:19:43.229Z,956.99
2022-09-02T04:20:43.217Z,957.04
2022-09-02T04:21:43.200Z,957.06
2022-09-02T04:22:43.187Z,957.05
2022-09-02T04:23:43.173Z,957.08
2022-09-02T04:24:43.161Z,957.04
2022-09-02T04:25:43.145Z,957.03
2022-09-02T04:26:44.857Z,957.04
2022-09-02T04:27:43.117Z,957.04
2022-09-02T04:28:43.105Z,957.03
2022-09-02T04:29:43.091Z,957.03
2022-09-02T04:30:43.077Z,956.99
2022-09-02T04:31:43.153Z,957
2022-09-02T04:32:43.049Z,957.01
2022-09-02T04:33:43.034Z,957.02
2022-09-02T04:34:43.022Z,957.01
2022-09-02T04:35:43.006Z,957.03
2022-09-02T04:36:42.994Z,957.02
2022-09-02T04:37:42.980Z,957.02
2022-09-02T04:38:42.967Z,956.96
2022-09-02T04:39:42.952Z,957.01
2022-09-02T04:40:43.134Z,957.02
2022-09-02T04:41:42.926Z,956.99
2022-09-02T04:42:42.909Z,957.01
2022-09-02T04:43:42.899Z,957
2022-09-02T04:44:42.881Z,957.05
2022-09-02T04:45:42.894Z,956.98
2022-09-02T04:46:42.900Z,956.99
2022-09-02T04:47:42.843Z,957.02
2022-09-02T04:48:42.827Z,956.96
2022-09-02T04:49:42.815Z,957
2022-09-02T04:50:42.799Z,957.05
2022-09-02T04:51:42.786Z,957.06
2022-09-02T04:52:42.773Z,957.06
2022-09-02T04:53:42.762Z,957
2022-09-02T04:54:42.744Z,957.04
2022-09-02T04:55:42.735Z,957.04
2022-09-02T04:56:42.718Z,956.96
2022-09-02T04:57:42.706Z,957.04
2022-09-02T04:58:42.689Z,956.99
2022-09-02T04:59:42.679Z,957
2022-09-02T05:00:42.663Z,956.95
2022-09-02T05:01:42.697Z,956.93
2022-09-02T05:02:42.722Z,956.94
2022-09-02T05:03:42.623Z,956.98
2022-09-02T05:04:42.617Z,956.96
2022-09-02T05:05:42.596Z,956.97
2022-09-02T05:06:44.462Z,957
2022-09-02T05:07:42.568Z,957.01
2022-09-02T05:08:42.553Z,957
2022-09-02T05:09:42.541Z,957
2022-09-02T05:10:42.526Z,956.97
2022-09-02T05:11:42.514Z,957.01
2022-09-02T05:12:42.498Z,957.04
2022-09-02T05:13:42.486Z,956.99
2022-09-02T05:14:42.474Z,956.98
2022-09-02T05:15:42.495Z,956.99
2022-09-02T05:16:42.445Z,957.01
2022-09-02T05:17:42.432Z,956.98
2022-09-02T05:18:42.417Z,956.97
2022-09-02T05:19:42.405Z,956.98
2022-09-02T05:20:42.390Z,957
2022-09-02T05:21:42.378Z,956.98
2022-09-02T05:22:42.364Z,957
2022-09-02T05:23:42.352Z,956.97
2022-09-02T05:24:42.336Z,957.03
2022-09-02T05:25:42.325Z,956.96
2022-09-02T05:26:42.313Z,956.94
2022-09-02T05:27:42.298Z,956.92
2022-09-02T05:28:42.283Z,956.98
2022-09-02T05:29:45.279Z,956.91
2022-09-02T05:30:42.306Z,956.93
2022-09-02T05:31:42.243Z,956.93
2022-09-02T05:32:42.232Z,956.92
2022-09-02T05:33:42.217Z,956.91
2022-09-02T05:34:42.207Z,956.93
2022-09-02T05:35:42.189Z,956.92
2022-09-02T05:36:42.179Z,956.99
2022-09-02T05:37:42.164Z,956.98
2022-09-02T05:38:42.152Z,956.95
2022-09-02T05:39:42.137Z,956.96
2022-09-02T05:40:42.191Z,956.97
2022-09-02T05:41:42.111Z,956.96
2022-09-02T05:42:42.098Z,956.97
2022-09-02T05:43:42.084Z,956.98
2022-09-02T05:44:42.073Z,956.97
2022-09-02T05:45:42.098Z,956.97
2022-09-02T05:46:44.495Z,956.98
2022-09-02T05:47:42.032Z,956.95
2022-09-02T05:48:42.020Z,956.93
2022-09-02T05:49:42.003Z,957
2022-09-02T05:50:41.993Z,956.96
2022-09-02T05:51:41.980Z,956.95
2022-09-02T05:52:41.968Z,956.98
2022-09-02T05:53:41.955Z,956.98
2022-09-02T05:54:41.942Z,956.99
2022-09-02T05:55:41.927Z,956.95
2022-09-02T05:56:45.061Z,957.01
2022-09-02T05:57:41.902Z,957
2022-09-02T05:58:41.890Z,956.99
2022-09-02T05:59:41.876Z,956.98
2022-09-02T06:00:41.864Z,956.96
2022-09-02T06:01:41.882Z,957
2022-09-02T06:02:41.902Z,957
2022-09-02T06:03:41.825Z,956.95
2022-09-02T06:04:41.812Z,956.99
2022-09-02T06:05:41.797Z,956.98
2022-09-02T06:06:41.787Z,956.96
2022-09-02T06:07:41.772Z,956.96
2022-09-02T06:08:41.760Z,956.97
2022-09-02T06:09:41.747Z,957.01
2022-09-02T06:10:41.736Z,956.94
2022-09-02T06:11:41.720Z,956.97
2022-09-02T06:12:42.698Z,956.98
2022-09-02T06:13:41.695Z,956.98
2022-09-02T06:14:41.684Z,957
2022-09-02T06:15:41.682Z,956.99
2022-09-02T06:16:41.658Z,956.98
2022-09-02T06:17:41.644Z,956.98
2022-09-02T06:18:41.634Z,956.98
2022-09-02T06:19:41.620Z,956.98
2022-09-02T06:20:41.610Z,956.99
2022-09-02T06:21:41.595Z,956.96
2022-09-02T06:22:41.583Z,956.95
2022-09-02T06:23:41.572Z,956.96
2022-09-02T06:24:41.556Z,956.93
2022-09-02T06:25:41.547Z,956.95
2022-09-02T06:26:41.533Z,957.02
2022-09-02T06:27:41.522Z,956.98
2022-09-02T06:28:41.510Z,956.96
2022-09-02T06:29:41.497Z,956.96
2022-09-02T06:30:41.506Z,956.95
2022-09-02T06:31:41.472Z,956.98
2022-09-02T06:32:41.458Z,956.97
2022-09-02T06:33:41.448Z,956.93
2022-09-02T06:34:41.434Z,956.97
2022-09-02T06:35:41.424Z,956.91
2022-09-02T06:36:41.411Z,957
2022-09-02T06:37:41.400Z,956.94
2022-09-02T06:38:45.230Z,956.95
2022-09-02T06:39:41.376Z,956.97
2022-09-02T06:40:41.424Z,956.95
2022-09-02T06:41:41.351Z,956.95
2022-09-02T06:42:41.343Z,956.94
2022-09-02T06:43:42.252Z,956.95
2022-09-02T06:44:41.314Z,956.94
2022-09-02T06:45:41.330Z,956.94
2022-09-02T06:46:41.293Z,956.97
2022-09-02T06:47:41.281Z,956.97
2022-09-02T06:48:41.267Z,956.96
2022-09-02T06:49:41.258Z,956.98
2022-09-02T06:50:41.245Z,957.01
2022-09-02T06:51:41.233Z,957.01
2022-09-02T06:52:41.220Z,957.02
2022-09-02T06:53:41.212Z,957.03
2022-09-02T06:54:41.198Z,957.02
2022-09-02T06:55:41.187Z,957.03
2022-09-02T06:56:43.054Z,957.06
2022-09-02T06:57:41.165Z,957.03
2022-09-02T06:58:41.154Z,957.08
2022-09-02T06:59:41.143Z,957.03
2022-09-02T07:00:41.136Z,957.07
2022-09-02T07:01:41.294Z,957
2022-09-02T07:02:41.109Z,957.03
2022-09-02T07:03:41.100Z,957.04
2022-09-02T07:04:41.088Z,957
2022-09-02T07:05:41.087Z,957.1
2022-09-02T07:06:41.069Z,957.05
2022-09-02T07:07:41.059Z,957.01
2022-09-02T07:08:41.047Z,957.05
2022-09-02T07:09:41.040Z,957.04
2022-09-02T07:10:41.030Z,957.06
2022-09-02T07:11:41.022Z,957.08
2022-09-02T07:12:41.009Z,957.09
2022-09-02T07:13:41.002Z,957.02
2022-09-02T07:14:40.997Z,956.94
2022-09-02T07:15:40.983Z,956.98
2022-09-02T07:16:41.048Z,957.02
2022-09-02T07:17:40.965Z,957
2022-09-02T07:18:40.959Z,956.97
2022-09-02T07:19:40.953Z,956.97
2022-09-02T07:20:40.942Z,956.94
2022-09-02T07:21:40.933Z,956.96
2022-09-02T07:22:40.974Z,956.91
2022-09-02T07:23:41.110Z,957
2022-09-02T07:24:40.909Z,956.94
2022-09-02T07:25:40.899Z,956.97
2022-09-02T07:26:40.894Z,957
2022-09-02T07:27:40.884Z,956.97
2022-09-02T07:28:40.877Z,956.96
2022-09-02T07:29:40.869Z,956.94
2022-09-02T07:30:40.916Z,956.97
2022-09-02T07:31:40.854Z,956.95
2022-09-02T07:32:40.846Z,956.96
2022-09-02T07:33:40.836Z,956.97
2022-09-02T07:34:40.832Z,956.94
2022-09-02T07:35:40.821Z,956.97
2022-09-02T07:36:40.814Z,956.96
2022-09-02T07:37:40.805Z,956.97
2022-09-02T07:38:40.800Z,956.97
2022-09-02T07:39:40.788Z,956.96
2022-09-02T07:40:40.796Z,956.99
2022-09-02T07:41:40.774Z,956.96
2022-09-02T07:42:40.766Z,956.98
2022-09-02T07:43:40.757Z,956.97
2022-09-02T07:44:40.751Z,957
2022-09-02T07:45:40.755Z,956.98
2022-09-02T07:46:40.735Z,956.96
2022-09-02T07:47:40.724Z,956.97
2022-09-02T07:48:40.720Z,956.98
2022-09-02T07:50:40.704Z,957.01
2022-09-02T07:51:40.696Z,957.01
2022-09-02T07:52:40.688Z,957.01
2022-09-02T07:53:40.679Z,957.01
2022-09-02T07:54:40.674Z,957.01
2022-09-02T07:55:40.665Z,956.97
2022-09-02T07:56:40.658Z,956.98
2022-09-02T07:57:40.648Z,957.04
2022-09-02T07:58:40.644Z,957.01
2022-09-02T07:59:40.635Z,956.98
2022-09-02T08:00:40.629Z,956.99
2022-09-02T08:02:40.725Z,956.97
2022-09-02T08:03:40.608Z,957.01
2022-09-02T08:04:40.598Z,956.95
2022-09-02T08:05:40.592Z,956.96
2022-09-02T08:06:40.586Z,957
2022-09-02T08:07:40.578Z,956.96
2022-09-02T08:08:40.568Z,956.98
2022-09-02T08:09:40.665Z,956.97
2022-09-02T08:10:40.556Z,956.95
2022-09-02T08:11:40.551Z,956.97
2022-09-02T08:12:40.543Z,956.98
2022-09-02T08:13:40.537Z,956.98
2022-09-02T08:14:40.529Z,957
2022-09-02T08:15:40.523Z,956.94
2022-09-02T08:16:40.573Z,956.96
2022-09-02T08:17:40.510Z,956.96
2022-09-02T08:18:40.506Z,956.96
2022-09-02T08:19:40.598Z,957
2022-09-02T08:20:40.505Z,956.97
2022-09-02T08:21:40.484Z,957.01
2022-09-02T08:22:40.477Z,957
2022-09-02T08:23:40.791Z,957.03
2022-09-02T08:24:40.466Z,956.96
2022-09-02T08:25:40.462Z,957
2022-09-02T08:26:40.451Z,956.94
2022-09-02T08:27:40.448Z,956.95
2022-09-02T08:28:40.445Z,956.93
2022-09-02T08:29:40.436Z,956.97
2022-09-02T08:30:40.435Z,956.91
2022-09-02T08:31:40.474Z,956.99
2022-09-02T08:32:40.416Z,956.99
2022-09-02T08:33:40.416Z,956.99
2022-09-02T08:34:40.411Z,956.99
2022-09-02T08:35:40.403Z,956.95
2022-09-02T08:36:40.395Z,956.97
2022-09-02T08:37:40.391Z,956.94
2022-09-02T08:38:40.384Z,956.94
2022-09-02T08:39:40.384Z,956.92
2022-09-02T08:40:40.436Z,956.96
2022-09-02T08:41:40.372Z,956.98
2022-09-02T08:42:40.364Z,956.98
2022-09-02T08:43:40.364Z,956.96
2022-09-02T08:44:40.354Z,956.95
2022-09-02T08:45:40.381Z,956.92
2022-09-02T08:46:40.345Z,956.93
2022-09-02T08:47:40.342Z,956.92
2022-09-02T08:48:40.334Z,956.94
2022-09-02T08:49:40.332Z,956.92
2022-09-02T08:50:40.323Z,956.92
2022-09-02T08:51:40.322Z,956.95
2022-09-02T08:52:40.316Z,956.98
2022-09-02T08:53:40.313Z,956.95
2022-09-02T08:54:40.320Z,956.95
2022-09-02T08:55:40.303Z,956.91
2022-09-02T08:56:40.298Z,956.92
2022-09-02T08:57:43.495Z,956.94
2022-09-02T08:58:40.290Z,956.93
2022-09-02T09:00:40.309Z,956.95
2022-09-02T09:01:40.276Z,956.95
2022-09-02T09:02:43.345Z,956.92
2022-09-02T09:03:40.267Z,956.92
2022-09-02T09:04:40.264Z,956.89
2022-09-02T09:05:40.260Z,956.87
2022-09-02T09:06:40.256Z,956.89
2022-09-02T09:07:40.253Z,956.89
2022-09-02T09:08:40.249Z,956.95
2022-09-02T09:09:40.244Z,956.92
2022-09-02T09:10:40.243Z,956.97
2022-09-02T09:11:40.238Z,956.96
2022-09-02T09:12:40.238Z,956.91
2022-09-02T09:13:41.515Z,956.82
2022-09-02T09:14:40.228Z,956.89
2022-09-02T09:15:40.225Z,956.86
2022-09-02T09:16:40.290Z,956.81
2022-09-02T09:17:40.216Z,956.85
2022-09-02T09:18:40.218Z,956.85
2022-09-02T09:19:40.210Z,956.84
2022-09-02T09:20:40.210Z,956.81
2022-09-02T09:21:40.203Z,956.83
2022-09-02T09:22:40.202Z,956.78
2022-09-02T09:23:40.198Z,956.79
2022-09-02T09:24:40.197Z,956.81
2022-09-02T09:25:40.191Z,956.79
2022-09-02T09:26:40.190Z,956.79
2022-09-02T09:27:40.185Z,956.82
2022-09-02T09:28:40.187Z,956.81
2022-09-02T09:29:40.178Z,956.83
2022-09-02T09:30:40.181Z,956.78
2022-09-02T09:31:40.184Z,956.79
2022-09-02T09:32:40.171Z,956.7
2022-09-02T09:33:40.167Z,956.77
2022-09-02T09:34:40.164Z,956.75
2022-09-02T09:35:40.161Z,956.71
2022-09-02T09:36:40.159Z,956.78
2022-09-02T09:37:40.154Z,956.69
2022-09-02T09:38:40.154Z,956.71
2022-09-02T09:39:40.148Z,956.71
2022-09-02T09:40:40.171Z,956.71
2022-09-02T09:41:40.143Z,956.71
2022-09-02T09:42:40.197Z,956.69
2022-09-02T09:43:40.137Z,956.71
2022-09-02T09:44:40.136Z,956.75
2022-09-02T09:45:40.182Z,956.72
2022-09-02T09:46:40.132Z,956.71
2022-09-02T09:47:40.125Z,956.68
2022-09-02T09:48:40.125Z,956.67
2022-09-02T09:49:40.124Z,956.66
2022-09-02T09:50:40.118Z,956.72
2022-09-02T09:51:49.992Z,956.66
2022-09-02T09:52:40.112Z,956.69
2022-09-02T09:53:40.112Z,956.7
2022-09-02T09:54:40.106Z,956.71
2022-09-02T09:55:40.105Z,956.63
2022-09-02T09:56:40.101Z,956.67
2022-09-02T09:57:40.099Z,956.66
2022-09-02T09:58:40.094Z,956.67
2022-09-02T09:59:40.092Z,956.64
2022-09-02T10:00:40.199Z,956.62
2022-09-02T10:01:40.110Z,956.63
2022-09-02T10:02:40.121Z,956.6
2022-09-02T10:03:40.078Z,956.66
2022-09-02T10:04:43.130Z,956.62
2022-09-02T10:05:40.072Z,956.62
2022-09-02T10:06:40.066Z,956.64
2022-09-02T10:07:40.064Z,956.65
2022-09-02T10:08:40.060Z,956.62
2022-09-02T10:09:40.059Z,956.64
2022-09-02T10:10:40.056Z,956.62
2022-09-02T10:11:40.052Z,956.62
2022-09-02T10:12:40.046Z,956.64
2022-09-02T10:13:40.045Z,956.58
2022-09-02T10:14:40.041Z,956.58
2022-09-02T10:15:40.038Z,956.58
2022-09-02T10:16:40.092Z,956.61
2022-09-02T10:17:40.032Z,956.57
2022-09-02T10:18:40.027Z,956.6
2022-09-02T10:19:40.025Z,956.55
2022-09-02T10:20:48.379Z,956.59
2022-09-02T10:21:44.513Z,956.58
2022-09-02T10:22:59.220Z,956.58
2022-09-02T10:23:40.012Z,956.53
2022-09-02T10:24:40.007Z,956.53
2022-09-02T10:25:40.006Z,956.52
2022-09-02T10:26:40.003Z,956.5
2022-09-02T10:27:40.000Z,956.47
2022-09-02T10:28:39.995Z,956.41
2022-09-02T10:29:39.994Z,956.4
2022-09-02T10:30:39.990Z,956.36
2022-09-02T10:31:40.020Z,956.4
2022-09-02T10:32:39.984Z,956.32
2022-09-02T10:33:39.982Z,956.27
2022-09-02T10:34:39.979Z,956.33
2022-09-02T10:35:39.976Z,956.26
2022-09-02T10:36:39.972Z,956.32
2022-09-02T10:37:39.970Z,956.32
2022-09-02T10:38:39.967Z,956.32
2022-09-02T10:39:39.968Z,956.36
2022-09-02T10:40:40.004Z,956.32
2022-09-02T10:41:39.994Z,956.29
2022-09-02T10:42:39.955Z,956.32
2022-09-02T10:43:39.951Z,956.34
2022-09-02T10:44:39.950Z,956.3
2022-09-02T10:45:39.946Z,956.33
2022-09-02T10:46:40.008Z,956.31
2022-09-02T10:47:39.984Z,956.32
2022-09-02T10:48:39.938Z,956.35
2022-09-02T10:49:39.933Z,956.29
2022-09-02T10:50:39.943Z,956.31
2022-09-02T10:51:39.930Z,956.32
2022-09-02T10:52:39.927Z,956.29
2022-09-02T10:53:39.921Z,956.28
2022-09-02T10:54:39.920Z,956.32
2022-09-02T10:55:39.915Z,956.31
2022-09-02T10:56:39.914Z,956.31
2022-09-02T10:57:39.910Z,956.28
2022-09-02T10:58:39.908Z,956.3
2022-09-02T10:59:39.905Z,956.29
2022-09-02T11:00:39.964Z,956.27
2022-09-02T11:01:40.589Z,956.23
2022-09-02T11:02:39.899Z,956.15
2022-09-02T11:03:39.930Z,956.19
2022-09-02T11:04:39.892Z,956.22
2022-09-02T11:05:39.886Z,956.2
2022-09-02T11:07:01.198Z,956.19
2022-09-02T11:07:39.880Z,956.21
2022-09-02T11:08:39.879Z,956.16
2022-09-02T11:09:39.876Z,956.19
2022-09-02T11:10:39.875Z,956.14
2022-09-02T11:11:39.870Z,956.17
2022-09-02T11:12:39.868Z,956.17
2022-09-02T11:13:39.864Z,956.16
2022-09-02T11:14:39.861Z,956.2
2022-09-02T11:15:39.856Z,956.17
2022-09-02T11:16:39.864Z,956.17
2022-09-02T11:17:39.850Z,956.18
2022-09-02T11:18:39.848Z,956.21
2022-09-02T11:19:39.844Z,956.18
2022-09-02T11:20:39.841Z,956.13
2022-09-02T11:21:39.837Z,956.12
2022-09-02T11:22:39.837Z,956.14
2022-09-02T11:23:39.830Z,956.12
2022-09-02T11:24:42.195Z,956.11
2022-09-02T11:25:39.823Z,956.12
2022-09-02T11:26:39.821Z,956.14
2022-09-02T11:27:42.400Z,956.16
2022-09-02T11:28:39.814Z,956.13
2022-09-02T11:29:39.822Z,956.16
2022-09-02T11:30:39.868Z,956.14
2022-09-02T11:31:39.806Z,956.13
2022-09-02T11:32:39.799Z,956.11
2022-09-02T11:33:39.794Z,956.09
2022-09-02T11:34:39.791Z,956.1
2022-09-02T11:35:39.789Z,956.06
2022-09-02T11:36:39.781Z,956.07
2022-09-02T11:37:39.780Z,956.1
2022-09-02T11:38:39.776Z,956.06
2022-09-02T11:39:53.919Z,956.07
2022-09-02T11:41:38.212Z,956.05
2022-09-02T11:42:38.023Z,956.04
2022-09-02T11:43:38.010Z,956.09
2022-09-02T11:44:38.015Z,956.07
2022-09-02T11:45:38.155Z,956.03
2022-09-02T11:46:38.072Z,956.05
2022-09-02T11:47:37.995Z,956
2022-09-02T11:48:37.994Z,956.06
2022-09-02T11:49:37.990Z,956.07
2022-09-02T11:50:39.415Z,956.02
2022-09-02T11:51:37.980Z,956.01
2022-09-02T11:52:37.978Z,956.04
2022-09-02T11:53:37.972Z,956.04
2022-09-02T11:54:37.970Z,956.07
2022-09-02T11:55:37.964Z,956.03
2022-09-02T11:56:37.970Z,956.02
2022-09-02T11:57:37.956Z,956.05
2022-09-02T11:58:37.953Z,956.04
2022-09-02T11:59:37.948Z,956.04
2022-09-02T12:00:37.946Z,956.03
2022-09-02T12:01:43.785Z,956.04
2022-09-02T12:02:37.937Z,955.97
2022-09-02T12:03:52.029Z,956
2022-09-02T12:05:09.390Z,956
2022-09-02T12:06:09.100Z,955.97
2022-09-02T12:07:10.139Z,955.96
2022-09-02T12:08:08.861Z,955.97
2022-09-02T12:09:08.857Z,955.96
2022-09-02T12:10:08.852Z,955.97
2022-09-02T12:11:08.847Z,955.93
2022-09-02T12:12:08.842Z,955.93
2022-09-02T12:13:09.777Z,955.94
2022-09-02T12:14:08.835Z,955.97
2022-09-02T12:15:08.830Z,955.96
2022-09-02T12:16:08.851Z,955.97
2022-09-02T12:17:08.826Z,955.93
2022-09-02T12:18:08.815Z,955.9
2022-09-02T12:19:08.813Z,955.9
2022-09-02T12:20:08.812Z,955.94
2022-09-02T12:21:11.068Z,955.89
2022-09-02T12:22:08.802Z,955.86
2022-09-02T12:23:08.795Z,955.85
2022-09-02T12:24:08.793Z,955.8
2022-09-02T12:25:08.792Z,955.85
2022-09-02T12:26:11.003Z,955.82
2022-09-02T12:27:08.778Z,955.8
2022-09-02T12:28:08.776Z,955.83
2022-09-02T12:29:08.770Z,955.81
2022-09-02T12:30:08.871Z,955.79
2022-09-02T12:31:08.910Z,955.78
2022-09-02T12:32:08.759Z,955.87
2022-09-02T12:33:08.753Z,955.84
2022-09-02T12:34:08.750Z,955.84
2022-09-02T12:35:08.745Z,955.79
2022-09-02T12:36:08.744Z,955.82
2022-09-02T12:37:08.737Z,955.8
2022-09-02T12:38:08.735Z,955.79
2022-09-02T12:39:09.923Z,955.77
2022-09-02T12:40:09.792Z,955.76
2022-09-02T12:41:08.726Z,955.77
2022-09-02T12:42:08.717Z,955.74
2022-09-02T12:43:08.712Z,955.73
2022-09-02T12:44:08.712Z,955.73
2022-09-02T12:45:08.703Z,955.72
2022-09-02T12:46:08.722Z,955.72
2022-09-02T12:47:08.696Z,955.7
2022-09-02T12:48:08.695Z,955.7
2022-09-02T12:49:08.689Z,955.66
2022-09-02T12:50:08.706Z,955.66
2022-09-02T12:51:08.681Z,955.64
2022-09-02T12:52:08.678Z,955.6
2022-09-02T12:53:08.677Z,955.58